sensor_id;sensor_type;location;lat;lon;timestamp;P1;durP1;ratioP1;P2;durP2;ratioP2
71637;SDS011;59485;43.542;-5.676;2023-05-07T00:01:32;16.30;;;3.50;;
71637;SDS011;59485;43.542;-5.676;2023-05-07T00:03:57;14.57;;;3.83;;
71637;SDS011;59485;43.542;-5.676;2023-05-07T00:06:23;15.57;;;3.40;;
71637;SDS011;59485;43.542;-5.676;2023-05-07T00:08:49;16.53;;;4.27;;
71637;SDS011;59485;43.542;-5.676;2023-05-07T00:11:14;17.20;;;3.33;;
71637;SDS011;59485;43.542;-5.676;2023-05-07T00:13:40;14.73;;;3.93;;
71637;SDS011;59485;43.542;-5.676;2023-05-07T00:16:05;17.73;;;3.87;;
71637;SDS011;59485;43.542;-5.676;2023-05-07T00:18:31;16.65;;;4.25;;
71637;SDS011;59485;43.542;-5.676;2023-05-07T00:20:56;16.47;;;4.07;;
71637;SDS011;59485;43.542;-5.676;2023-05-07T00:23:22;14.53;;;3.60;;
71637;SDS011;59485;43.542;-5.676;2023-05-07T00:25:48;16.80;;;4.00;;
71637;SDS011;59485;43.542;-5.676;2023-05-07T00:28:13;14.00;;;4.93;;
71637;SDS011;59485;43.542;-5.676;2023-05-07T00:30:39;18.08;;;4.20;;
71637;SDS011;59485;43.542;-5.676;2023-05-07T00:33:04;19.97;;;4.87;;
71637;SDS011;59485;43.542;-5.676;2023-05-07T00:35:30;20.10;;;4.75;;
71637;SDS011;59485;43.542;-5.676;2023-05-07T00:37:56;21.60;;;5.67;;
71637;SDS011;59485;43.542;-5.676;2023-05-07T00:40:21;23.70;;;4.90;;
71637;SDS011;59485;43.542;-5.676;2023-05-07T00:42:47;28.15;;;4.45;;
71637;SDS011;59485;43.542;-5.676;2023-05-07T00:45:14;17.60;;;4.65;;
71637;SDS011;59485;43.542;-5.676;2023-05-07T00:47:40;26.13;;;4.60;;
71637;SDS011;59485;43.542;-5.676;2023-05-07T00:50:06;28.55;;;5.00;;
71637;SDS011;59485;43.542;-5.676;2023-05-07T00:52:33;22.20;;;4.80;;
71637;SDS011;59485;43.542;-5.676;2023-05-07T00:55:00;22.23;;;4.40;;
71637;SDS011;59485;43.542;-5.676;2023-05-07T00:57:32;23.38;;;4.50;;
71637;SDS011;59485;43.542;-5.676;2023-05-07T01:00:02;24.52;;;5.20;;
71637;SDS011;59485;43.542;-5.676;2023-05-07T01:02:29;21.65;;;4.90;;
71637;SDS011;59485;43.542;-5.676;2023-05-07T01:04:55;20.43;;;3.87;;
71637;SDS011;59485;43.542;-5.676;2023-05-07T01:07:21;22.38;;;4.40;;
71637;SDS011;59485;43.542;-5.676;2023-05-07T01:09:47;28.95;;;4.85;;
71637;SDS011;59485;43.542;-5.676;2023-05-07T01:12:13;23.33;;;4.90;;
71637;SDS011;59485;43.542;-5.676;2023-05-07T01:14:39;20.02;;;4.97;;
71637;SDS011;59485;43.542;-5.676;2023-05-07T01:17:05;23.53;;;4.57;;
71637;SDS011;59485;43.542;-5.676;2023-05-07T01:19:31;23.75;;;4.80;;
71637;SDS011;59485;43.542;-5.676;2023-05-07T01:22:00;22.50;;;4.57;;
71637;SDS011;59485;43.542;-5.676;2023-05-07T01:24:29;30.30;;;5.95;;
71637;SDS011;59485;43.542;-5.676;2023-05-07T01:26:56;27.98;;;5.82;;
71637;SDS011;59485;43.542;-5.676;2023-05-07T01:29:22;28.63;;;5.57;;
71637;SDS011;59485;43.542;-5.676;2023-05-07T01:31:47;23.65;;;4.75;;
71637;SDS011;59485;43.542;-5.676;2023-05-07T01:34:14;27.87;;;5.83;;
71637;SDS011;59485;43.542;-5.676;2023-05-07T01:36:42;26.88;;;4.95;;
71637;SDS011;59485;43.542;-5.676;2023-05-07T01:39:08;31.00;;;5.40;;
71637;SDS011;59485;43.542;-5.676;2023-05-07T01:41:35;33.95;;;5.35;;
71637;SDS011;59485;43.542;-5.676;2023-05-07T01:44:01;38.40;;;5.47;;
71637;SDS011;59485;43.542;-5.676;2023-05-07T01:46:28;30.35;;;5.15;;
71637;SDS011;59485;43.542;-5.676;2023-05-07T01:48:56;30.17;;;5.15;;
71637;SDS011;59485;43.542;-5.676;2023-05-07T01:51:21;28.53;;;5.87;;
71637;SDS011;59485;43.542;-5.676;2023-05-07T01:53:47;26.30;;;4.95;;
71637;SDS011;59485;43.542;-5.676;2023-05-07T01:56:16;19.73;;;4.32;;
71637;SDS011;59485;43.542;-5.676;2023-05-07T01:58:44;27.27;;;5.50;;
71637;SDS011;59485;43.542;-5.676;2023-05-07T02:01:11;24.63;;;5.43;;
71637;SDS011;59485;43.542;-5.676;2023-05-07T02:03:36;25.50;;;4.43;;
71637;SDS011;59485;43.542;-5.676;2023-05-07T02:06:02;30.27;;;5.05;;
71637;SDS011;59485;43.542;-5.676;2023-05-07T02:08:27;24.77;;;4.60;;
71637;SDS011;59485;43.542;-5.676;2023-05-07T02:10:53;24.17;;;5.10;;
71637;SDS011;59485;43.542;-5.676;2023-05-07T02:13:19;27.88;;;4.38;;
71637;SDS011;59485;43.542;-5.676;2023-05-07T02:15:45;26.15;;;4.85;;
71637;SDS011;59485;43.542;-5.676;2023-05-07T02:18:14;25.25;;;5.32;;
71637;SDS011;59485;43.542;-5.676;2023-05-07T02:20:41;26.50;;;5.13;;
71637;SDS011;59485;43.542;-5.676;2023-05-07T02:23:07;24.00;;;4.75;;
71637;SDS011;59485;43.542;-5.676;2023-05-07T02:25:32;24.83;;;5.07;;
71637;SDS011;59485;43.542;-5.676;2023-05-07T02:27:58;23.80;;;4.60;;
71637;SDS011;59485;43.542;-5.676;2023-05-07T02:30:24;22.38;;;5.18;;
71637;SDS011;59485;43.542;-5.676;2023-05-07T02:32:50;35.40;;;4.90;;
71637;SDS011;59485;43.542;-5.676;2023-05-07T02:35:15;29.98;;;5.53;;
71637;SDS011;59485;43.542;-5.676;2023-05-07T02:37:41;26.87;;;5.23;;
71637;SDS011;59485;43.542;-5.676;2023-05-07T02:40:07;25.38;;;4.93;;
71637;SDS011;59485;43.542;-5.676;2023-05-07T02:42:33;30.43;;;4.90;;
71637;SDS011;59485;43.542;-5.676;2023-05-07T02:44:58;24.00;;;4.35;;
71637;SDS011;59485;43.542;-5.676;2023-05-07T02:47:24;20.20;;;4.73;;
71637;SDS011;59485;43.542;-5.676;2023-05-07T02:49:52;28.60;;;5.38;;
71637;SDS011;59485;43.542;-5.676;2023-05-07T02:52:18;24.27;;;4.55;;
71637;SDS011;59485;43.542;-5.676;2023-05-07T02:54:43;28.97;;;6.20;;
71637;SDS011;59485;43.542;-5.676;2023-05-07T02:57:09;20.33;;;4.47;;
71637;SDS011;59485;43.542;-5.676;2023-05-07T02:59:35;29.87;;;6.20;;
71637;SDS011;59485;43.542;-5.676;2023-05-07T03:02:00;26.90;;;4.97;;
71637;SDS011;59485;43.542;-5.676;2023-05-07T03:04:26;26.00;;;4.53;;
71637;SDS011;59485;43.542;-5.676;2023-05-07T03:06:51;20.80;;;4.00;;
71637;SDS011;59485;43.542;-5.676;2023-05-07T03:09:17;23.17;;;4.73;;
71637;SDS011;59485;43.542;-5.676;2023-05-07T03:11:42;23.67;;;5.10;;
71637;SDS011;59485;43.542;-5.676;2023-05-07T03:14:08;28.30;;;4.37;;
71637;SDS011;59485;43.542;-5.676;2023-05-07T03:16:33;21.17;;;3.80;;
71637;SDS011;59485;43.542;-5.676;2023-05-07T03:18:59;27.58;;;4.57;;
71637;SDS011;59485;43.542;-5.676;2023-05-07T03:21:25;24.57;;;4.00;;
71637;SDS011;59485;43.542;-5.676;2023-05-07T03:23:51;23.38;;;3.80;;
71637;SDS011;59485;43.542;-5.676;2023-05-07T03:26:17;24.38;;;4.40;;
71637;SDS011;59485;43.542;-5.676;2023-05-07T03:28:42;25.13;;;4.03;;
71637;SDS011;59485;43.542;-5.676;2023-05-07T03:31:08;23.40;;;4.83;;
71637;SDS011;59485;43.542;-5.676;2023-05-07T03:33:33;20.58;;;4.20;;
71637;SDS011;59485;43.542;-5.676;2023-05-07T03:36:00;21.97;;;3.97;;
71637;SDS011;59485;43.542;-5.676;2023-05-07T03:38:26;19.50;;;3.80;;
71637;SDS011;59485;43.542;-5.676;2023-05-07T03:40:51;21.25;;;4.35;;
71637;SDS011;59485;43.542;-5.676;2023-05-07T03:43:17;24.67;;;4.03;;
71637;SDS011;59485;43.542;-5.676;2023-05-07T03:45:42;24.57;;;4.57;;
71637;SDS011;59485;43.542;-5.676;2023-05-07T03:48:08;24.27;;;4.78;;
71637;SDS011;59485;43.542;-5.676;2023-05-07T03:50:33;24.03;;;4.57;;
71637;SDS011;59485;43.542;-5.676;2023-05-07T03:52:59;21.23;;;4.77;;
71637;SDS011;59485;43.542;-5.676;2023-05-07T03:55:25;23.83;;;3.80;;
71637;SDS011;59485;43.542;-5.676;2023-05-07T03:57:50;19.77;;;4.03;;
71637;SDS011;59485;43.542;-5.676;2023-05-07T04:00:16;21.95;;;4.28;;
71637;SDS011;59485;43.542;-5.676;2023-05-07T04:02:41;26.63;;;5.03;;
71637;SDS011;59485;43.542;-5.676;2023-05-07T04:05:07;22.30;;;4.43;;
71637;SDS011;59485;43.542;-5.676;2023-05-07T04:07:33;24.33;;;5.82;;
71637;SDS011;59485;43.542;-5.676;2023-05-07T04:10:00;24.15;;;5.18;;
71637;SDS011;59485;43.542;-5.676;2023-05-07T04:12:25;31.27;;;6.87;;
71637;SDS011;59485;43.542;-5.676;2023-05-07T04:14:51;22.13;;;5.27;;
71637;SDS011;59485;43.542;-5.676;2023-05-07T04:17:16;24.25;;;5.80;;
71637;SDS011;59485;43.542;-5.676;2023-05-07T04:19:42;34.30;;;6.30;;
71637;SDS011;59485;43.542;-5.676;2023-05-07T04:22:10;26.10;;;5.95;;
71637;SDS011;59485;43.542;-5.676;2023-05-07T04:24:36;27.10;;;5.88;;
71637;SDS011;59485;43.542;-5.676;2023-05-07T04:27:02;28.07;;;7.10;;
71637;SDS011;59485;43.542;-5.676;2023-05-07T04:29:27;30.30;;;6.07;;
71637;SDS011;59485;43.542;-5.676;2023-05-07T04:31:53;29.85;;;6.05;;
71637;SDS011;59485;43.542;-5.676;2023-05-07T04:34:21;26.65;;;5.60;;
71637;SDS011;59485;43.542;-5.676;2023-05-07T04:36:46;23.53;;;5.23;;
71637;SDS011;59485;43.542;-5.676;2023-05-07T04:39:13;25.60;;;5.65;;
71637;SDS011;59485;43.542;-5.676;2023-05-07T04:41:38;24.37;;;5.17;;
71637;SDS011;59485;43.542;-5.676;2023-05-07T04:44:04;25.02;;;5.45;;
71637;SDS011;59485;43.542;-5.676;2023-05-07T04:46:30;25.17;;;5.60;;
71637;SDS011;59485;43.542;-5.676;2023-05-07T04:48:56;28.80;;;6.15;;
71637;SDS011;59485;43.542;-5.676;2023-05-07T04:51:21;25.27;;;4.93;;
71637;SDS011;59485;43.542;-5.676;2023-05-07T04:53:48;33.43;;;5.73;;
71637;SDS011;59485;43.542;-5.676;2023-05-07T04:56:14;29.17;;;5.78;;
71637;SDS011;59485;43.542;-5.676;2023-05-07T04:58:39;25.27;;;5.27;;
71637;SDS011;59485;43.542;-5.676;2023-05-07T05:01:05;22.33;;;5.13;;
71637;SDS011;59485;43.542;-5.676;2023-05-07T05:03:31;35.47;;;6.20;;
71637;SDS011;59485;43.542;-5.676;2023-05-07T05:05:56;25.17;;;5.35;;
71637;SDS011;59485;43.542;-5.676;2023-05-07T05:08:24;24.60;;;5.68;;
71637;SDS011;59485;43.542;-5.676;2023-05-07T05:10:50;25.50;;;5.30;;
71637;SDS011;59485;43.542;-5.676;2023-05-07T05:13:15;24.30;;;5.18;;
71637;SDS011;59485;43.542;-5.676;2023-05-07T05:15:41;30.10;;;5.77;;
71637;SDS011;59485;43.542;-5.676;2023-05-07T05:18:07;20.05;;;5.03;;
71637;SDS011;59485;43.542;-5.676;2023-05-07T05:20:32;20.17;;;5.40;;
71637;SDS011;59485;43.542;-5.676;2023-05-07T05:22:58;26.40;;;4.90;;
71637;SDS011;59485;43.542;-5.676;2023-05-07T05:25:23;23.58;;;5.47;;
71637;SDS011;59485;43.542;-5.676;2023-05-07T05:27:49;21.43;;;5.40;;
71637;SDS011;59485;43.542;-5.676;2023-05-07T05:30:15;33.00;;;5.87;;
71637;SDS011;59485;43.542;-5.676;2023-05-07T05:32:40;20.98;;;5.10;;
71637;SDS011;59485;43.542;-5.676;2023-05-07T05:35:06;25.93;;;6.40;;
71637;SDS011;59485;43.542;-5.676;2023-05-07T05:37:31;19.98;;;5.13;;
71637;SDS011;59485;43.542;-5.676;2023-05-07T05:39:57;22.03;;;5.60;;
71637;SDS011;59485;43.542;-5.676;2023-05-07T05:42:23;23.37;;;5.77;;
71637;SDS011;59485;43.542;-5.676;2023-05-07T05:44:48;23.90;;;5.13;;
71637;SDS011;59485;43.542;-5.676;2023-05-07T05:47:14;23.37;;;5.80;;
71637;SDS011;59485;43.542;-5.676;2023-05-07T05:49:39;26.05;;;5.95;;
71637;SDS011;59485;43.542;-5.676;2023-05-07T05:52:05;23.03;;;5.37;;
71637;SDS011;59485;43.542;-5.676;2023-05-07T05:54:30;27.43;;;5.20;;
71637;SDS011;59485;43.542;-5.676;2023-05-07T05:56:56;32.38;;;6.70;;
71637;SDS011;59485;43.542;-5.676;2023-05-07T05:59:22;37.13;;;7.20;;
71637;SDS011;59485;43.542;-5.676;2023-05-07T06:01:48;44.42;;;9.45;;
71637;SDS011;59485;43.542;-5.676;2023-05-07T06:04:13;46.47;;;8.50;;
71637;SDS011;59485;43.542;-5.676;2023-05-07T06:06:39;48.25;;;9.77;;
71637;SDS011;59485;43.542;-5.676;2023-05-07T06:09:04;40.63;;;8.10;;
71637;SDS011;59485;43.542;-5.676;2023-05-07T06:11:31;46.80;;;9.10;;
71637;SDS011;59485;43.542;-5.676;2023-05-07T06:13:56;45.53;;;9.00;;
71637;SDS011;59485;43.542;-5.676;2023-05-07T06:16:22;43.83;;;8.50;;
71637;SDS011;59485;43.542;-5.676;2023-05-07T06:18:47;46.30;;;8.40;;
71637;SDS011;59485;43.542;-5.676;2023-05-07T06:21:13;39.40;;;7.87;;
71637;SDS011;59485;43.542;-5.676;2023-05-07T06:23:39;37.30;;;8.30;;
71637;SDS011;59485;43.542;-5.676;2023-05-07T06:26:06;33.50;;;6.95;;
71637;SDS011;59485;43.542;-5.676;2023-05-07T06:28:32;38.45;;;7.85;;
71637;SDS011;59485;43.542;-5.676;2023-05-07T06:31:12;37.63;;;8.13;;
71637;SDS011;59485;43.542;-5.676;2023-05-07T06:33:41;33.20;;;6.07;;
71637;SDS011;59485;43.542;-5.676;2023-05-07T06:36:08;33.03;;;6.38;;
71637;SDS011;59485;43.542;-5.676;2023-05-07T06:38:34;38.43;;;8.33;;
71637;SDS011;59485;43.542;-5.676;2023-05-07T06:40:59;36.30;;;8.15;;
71637;SDS011;59485;43.542;-5.676;2023-05-07T06:43:25;36.63;;;9.73;;
71637;SDS011;59485;43.542;-5.676;2023-05-07T06:45:50;33.10;;;6.70;;
71637;SDS011;59485;43.542;-5.676;2023-05-07T06:48:16;29.27;;;5.95;;
71637;SDS011;59485;43.542;-5.676;2023-05-07T06:50:41;28.00;;;6.43;;
71637;SDS011;59485;43.542;-5.676;2023-05-07T06:53:07;40.25;;;7.68;;
71637;SDS011;59485;43.542;-5.676;2023-05-07T06:55:32;27.07;;;5.70;;
71637;SDS011;59485;43.542;-5.676;2023-05-07T06:57:58;28.27;;;6.83;;
71637;SDS011;59485;43.542;-5.676;2023-05-07T07:00:26;33.35;;;7.40;;
71637;SDS011;59485;43.542;-5.676;2023-05-07T07:02:53;27.50;;;6.20;;
71637;SDS011;59485;43.542;-5.676;2023-05-07T07:05:18;20.27;;;4.88;;
71637;SDS011;59485;43.542;-5.676;2023-05-07T07:07:44;26.30;;;5.53;;
71637;SDS011;59485;43.542;-5.676;2023-05-07T07:10:09;25.97;;;5.37;;
71637;SDS011;59485;43.542;-5.676;2023-05-07T07:12:35;24.70;;;6.88;;
71637;SDS011;59485;43.542;-5.676;2023-05-07T07:15:00;25.53;;;5.37;;
71637;SDS011;59485;43.542;-5.676;2023-05-07T07:17:27;27.20;;;6.28;;
71637;SDS011;59485;43.542;-5.676;2023-05-07T07:19:53;26.50;;;6.10;;
71637;SDS011;59485;43.542;-5.676;2023-05-07T07:22:19;26.60;;;5.33;;
71637;SDS011;59485;43.542;-5.676;2023-05-07T07:24:44;29.60;;;5.43;;
71637;SDS011;59485;43.542;-5.676;2023-05-07T07:27:11;22.10;;;5.75;;
71637;SDS011;59485;43.542;-5.676;2023-05-07T07:29:36;22.60;;;5.03;;
71637;SDS011;59485;43.542;-5.676;2023-05-07T07:32:02;26.80;;;6.22;;
71637;SDS011;59485;43.542;-5.676;2023-05-07T07:34:27;32.30;;;6.40;;
71637;SDS011;59485;43.542;-5.676;2023-05-07T07:36:53;27.57;;;5.60;;
71637;SDS011;59485;43.542;-5.676;2023-05-07T07:39:18;24.92;;;5.53;;
71637;SDS011;59485;43.542;-5.676;2023-05-07T07:41:44;25.13;;;4.67;;
71637;SDS011;59485;43.542;-5.676;2023-05-07T07:44:09;23.83;;;5.10;;
71637;SDS011;59485;43.542;-5.676;2023-05-07T07:46:37;25.02;;;5.10;;
71637;SDS011;59485;43.542;-5.676;2023-05-07T07:49:03;30.77;;;5.77;;
71637;SDS011;59485;43.542;-5.676;2023-05-07T07:51:28;29.02;;;5.40;;
71637;SDS011;59485;43.542;-5.676;2023-05-07T07:53:55;23.97;;;5.07;;
71637;SDS011;59485;43.542;-5.676;2023-05-07T07:56:22;28.38;;;4.65;;
71637;SDS011;59485;43.542;-5.676;2023-05-07T07:58:48;25.65;;;5.40;;
71637;SDS011;59485;43.542;-5.676;2023-05-07T08:01:14;24.70;;;5.10;;
71637;SDS011;59485;43.542;-5.676;2023-05-07T08:03:39;28.50;;;5.95;;
71637;SDS011;59485;43.542;-5.676;2023-05-07T08:06:05;26.40;;;5.00;;
71637;SDS011;59485;43.542;-5.676;2023-05-07T08:08:31;26.55;;;4.50;;
71637;SDS011;59485;43.542;-5.676;2023-05-07T08:10:56;22.27;;;4.30;;
71637;SDS011;59485;43.542;-5.676;2023-05-07T08:13:22;27.80;;;4.60;;
71637;SDS011;59485;43.542;-5.676;2023-05-07T08:15:47;26.35;;;4.28;;
71637;SDS011;59485;43.542;-5.676;2023-05-07T08:18:13;20.53;;;4.13;;
71637;SDS011;59485;43.542;-5.676;2023-05-07T08:20:38;25.47;;;3.80;;
71637;SDS011;59485;43.542;-5.676;2023-05-07T08:23:04;22.75;;;3.88;;
71637;SDS011;59485;43.542;-5.676;2023-05-07T08:25:34;24.10;;;4.60;;
71637;SDS011;59485;43.542;-5.676;2023-05-07T08:28:00;22.02;;;4.97;;
71637;SDS011;59485;43.542;-5.676;2023-05-07T08:30:26;19.47;;;3.80;;
71637;SDS011;59485;43.542;-5.676;2023-05-07T08:32:51;26.38;;;4.07;;
71637;SDS011;59485;43.542;-5.676;2023-05-07T08:35:17;25.33;;;4.20;;
71637;SDS011;59485;43.542;-5.676;2023-05-07T08:37:43;25.48;;;4.22;;
71637;SDS011;59485;43.542;-5.676;2023-05-07T08:40:09;25.50;;;4.73;;
71637;SDS011;59485;43.542;-5.676;2023-05-07T08:42:35;23.83;;;4.03;;
71637;SDS011;59485;43.542;-5.676;2023-05-07T08:45:04;29.00;;;5.07;;
71637;SDS011;59485;43.542;-5.676;2023-05-07T08:47:43;21.90;;;4.47;;
71637;SDS011;59485;43.542;-5.676;2023-05-07T08:50:11;19.50;;;3.55;;
71637;SDS011;59485;43.542;-5.676;2023-05-07T08:52:37;26.20;;;4.70;;
71637;SDS011;59485;43.542;-5.676;2023-05-07T08:55:04;22.48;;;4.50;;
71637;SDS011;59485;43.542;-5.676;2023-05-07T08:57:30;20.55;;;4.28;;
71637;SDS011;59485;43.542;-5.676;2023-05-07T08:59:56;26.00;;;4.97;;
71637;SDS011;59485;43.542;-5.676;2023-05-07T09:02:21;24.80;;;4.63;;
71637;SDS011;59485;43.542;-5.676;2023-05-07T09:04:47;31.05;;;4.55;;
71637;SDS011;59485;43.542;-5.676;2023-05-07T09:07:12;26.33;;;3.97;;
71637;SDS011;59485;43.542;-5.676;2023-05-07T09:09:38;26.83;;;5.10;;
71637;SDS011;59485;43.542;-5.676;2023-05-07T09:12:03;24.13;;;4.93;;
71637;SDS011;59485;43.542;-5.676;2023-05-07T09:14:29;28.53;;;6.37;;
71637;SDS011;59485;43.542;-5.676;2023-05-07T09:16:58;20.08;;;4.45;;
71637;SDS011;59485;43.542;-5.676;2023-05-07T09:19:25;19.83;;;3.03;;
71637;SDS011;59485;43.542;-5.676;2023-05-07T09:21:59;20.57;;;2.40;;
71637;SDS011;59485;43.542;-5.676;2023-05-07T09:24:26;26.83;;;5.30;;
71637;SDS011;59485;43.542;-5.676;2023-05-07T09:26:53;25.15;;;5.25;;
71637;SDS011;59485;43.542;-5.676;2023-05-07T09:29:20;18.52;;;3.40;;
71637;SDS011;59485;43.542;-5.676;2023-05-07T09:31:46;21.37;;;3.33;;
71637;SDS011;59485;43.542;-5.676;2023-05-07T09:34:11;18.35;;;2.80;;
71637;SDS011;59485;43.542;-5.676;2023-05-07T09:36:37;21.83;;;3.70;;
71637;SDS011;59485;43.542;-5.676;2023-05-07T09:39:02;18.30;;;3.20;;
71637;SDS011;59485;43.542;-5.676;2023-05-07T09:41:29;22.80;;;3.67;;
71637;SDS011;59485;43.542;-5.676;2023-05-07T09:43:57;20.52;;;3.05;;
71637;SDS011;59485;43.542;-5.676;2023-05-07T09:46:30;16.37;;;3.00;;
71637;SDS011;59485;43.542;-5.676;2023-05-07T09:48:59;17.42;;;3.20;;
71637;SDS011;59485;43.542;-5.676;2023-05-07T09:51:51;16.33;;;2.85;;
71637;SDS011;59485;43.542;-5.676;2023-05-07T09:54:16;21.08;;;3.15;;
71637;SDS011;59485;43.542;-5.676;2023-05-07T09:56:43;17.95;;;3.25;;
71637;SDS011;59485;43.542;-5.676;2023-05-07T09:59:13;22.97;;;4.30;;
71637;SDS011;59485;43.542;-5.676;2023-05-07T10:01:41;19.13;;;3.20;;
71637;SDS011;59485;43.542;-5.676;2023-05-07T10:04:08;20.17;;;3.22;;
71637;SDS011;59485;43.542;-5.676;2023-05-07T10:06:35;18.58;;;2.95;;
71637;SDS011;59485;43.542;-5.676;2023-05-07T10:09:02;18.23;;;3.08;;
71637;SDS011;59485;43.542;-5.676;2023-05-07T10:11:29;20.93;;;3.33;;
71637;SDS011;59485;43.542;-5.676;2023-05-07T10:13:56;16.98;;;2.95;;
71637;SDS011;59485;43.542;-5.676;2023-05-07T10:16:22;19.33;;;3.47;;
71637;SDS011;59485;43.542;-5.676;2023-05-07T10:18:50;16.13;;;2.73;;
71637;SDS011;59485;43.542;-5.676;2023-05-07T10:21:17;20.73;;;3.08;;
71637;SDS011;59485;43.542;-5.676;2023-05-07T10:23:51;16.13;;;2.83;;
71637;SDS011;59485;43.542;-5.676;2023-05-07T10:26:23;17.63;;;2.97;;
71637;SDS011;59485;43.542;-5.676;2023-05-07T10:28:53;15.52;;;3.13;;
71637;SDS011;59485;43.542;-5.676;2023-05-07T10:31:35;15.73;;;2.60;;
71637;SDS011;59485;43.542;-5.676;2023-05-07T10:34:21;13.15;;;2.80;;
71637;SDS011;59485;43.542;-5.676;2023-05-07T10:36:51;19.80;;;2.75;;
71637;SDS011;59485;43.542;-5.676;2023-05-07T10:39:18;15.75;;;2.33;;
71637;SDS011;59485;43.542;-5.676;2023-05-07T10:41:45;18.92;;;3.55;;
71637;SDS011;59485;43.542;-5.676;2023-05-07T10:44:11;13.67;;;2.07;;
71637;SDS011;59485;43.542;-5.676;2023-05-07T10:46:42;16.27;;;2.60;;
71637;SDS011;59485;43.542;-5.676;2023-05-07T10:49:08;16.60;;;3.00;;
71637;SDS011;59485;43.542;-5.676;2023-05-07T10:51:35;15.93;;;3.00;;
71637;SDS011;59485;43.542;-5.676;2023-05-07T10:56:42;14.07;;;1.88;;
71637;SDS011;59485;43.542;-5.676;2023-05-07T11:01:58;10.18;;;1.35;;
71637;SDS011;59485;43.542;-5.676;2023-05-07T11:04:27;8.68;;;1.60;;
71637;SDS011;59485;43.542;-5.676;2023-05-07T11:17:32;10.18;;;1.58;;
71637;SDS011;59485;43.542;-5.676;2023-05-07T11:20:00;9.85;;;1.63;;
71637;SDS011;59485;43.542;-5.676;2023-05-07T11:24:55;13.75;;;1.55;;
71637;SDS011;59485;43.542;-5.676;2023-05-07T11:27:28;10.53;;;1.57;;
71637;SDS011;59485;43.542;-5.676;2023-05-07T11:29:54;8.90;;;1.60;;
71637;SDS011;59485;43.542;-5.676;2023-05-07T11:32:25;9.82;;;1.90;;
71637;SDS011;59485;43.542;-5.676;2023-05-07T11:34:58;14.38;;;1.80;;
71637;SDS011;59485;43.542;-5.676;2023-05-07T11:37:25;5.68;;;1.00;;
71637;SDS011;59485;43.542;-5.676;2023-05-07T11:40:06;11.87;;;1.70;;
71637;SDS011;59485;43.542;-5.676;2023-05-07T11:42:33;12.18;;;1.60;;
71637;SDS011;59485;43.542;-5.676;2023-05-07T11:45:03;11.35;;;1.42;;
71637;SDS011;59485;43.542;-5.676;2023-05-07T11:47:30;9.70;;;1.63;;
71637;SDS011;59485;43.542;-5.676;2023-05-07T11:49:56;11.10;;;1.57;;
71637;SDS011;59485;43.542;-5.676;2023-05-07T11:52:22;8.82;;;1.52;;
71637;SDS011;59485;43.542;-5.676;2023-05-07T11:57:15;8.88;;;1.45;;
71637;SDS011;59485;43.542;-5.676;2023-05-07T11:59:41;10.73;;;1.43;;
71637;SDS011;59485;43.542;-5.676;2023-05-07T12:02:07;9.85;;;1.45;;
71637;SDS011;59485;43.542;-5.676;2023-05-07T12:04:33;7.40;;;1.10;;
71637;SDS011;59485;43.542;-5.676;2023-05-07T12:06:58;9.32;;;1.50;;
71637;SDS011;59485;43.542;-5.676;2023-05-07T12:09:24;10.60;;;1.57;;
71637;SDS011;59485;43.542;-5.676;2023-05-07T12:11:51;12.15;;;2.75;;
71637;SDS011;59485;43.542;-5.676;2023-05-07T12:14:17;13.60;;;1.55;;
71637;SDS011;59485;43.542;-5.676;2023-05-07T12:16:42;8.30;;;1.80;;
71637;SDS011;59485;43.542;-5.676;2023-05-07T12:19:10;9.45;;;2.13;;
71637;SDS011;59485;43.542;-5.676;2023-05-07T12:21:39;8.20;;;1.48;;
71637;SDS011;59485;43.542;-5.676;2023-05-07T12:24:05;6.28;;;1.00;;
71637;SDS011;59485;43.542;-5.676;2023-05-07T12:26:31;11.40;;;1.60;;
71637;SDS011;59485;43.542;-5.676;2023-05-07T12:28:57;9.50;;;1.30;;
71637;SDS011;59485;43.542;-5.676;2023-05-07T12:31:25;8.63;;;1.90;;
71637;SDS011;59485;43.542;-5.676;2023-05-07T12:33:51;8.13;;;1.10;;
71637;SDS011;59485;43.542;-5.676;2023-05-07T12:36:17;10.35;;;1.33;;
71637;SDS011;59485;43.542;-5.676;2023-05-07T12:38:43;9.20;;;1.20;;
71637;SDS011;59485;43.542;-5.676;2023-05-07T12:41:09;7.53;;;1.05;;
71637;SDS011;59485;43.542;-5.676;2023-05-07T12:43:36;10.57;;;1.23;;
71637;SDS011;59485;43.542;-5.676;2023-05-07T12:46:03;10.30;;;0.80;;
71637;SDS011;59485;43.542;-5.676;2023-05-07T12:48:30;7.47;;;1.02;;
71637;SDS011;59485;43.542;-5.676;2023-05-07T12:50:56;6.70;;;1.07;;
71637;SDS011;59485;43.542;-5.676;2023-05-07T12:53:23;10.25;;;1.10;;
71637;SDS011;59485;43.542;-5.676;2023-05-07T12:55:51;6.57;;;1.30;;
71637;SDS011;59485;43.542;-5.676;2023-05-07T12:58:21;9.43;;;1.00;;
71637;SDS011;59485;43.542;-5.676;2023-05-07T13:00:50;5.60;;;1.00;;
71637;SDS011;59485;43.542;-5.676;2023-05-07T13:03:23;6.43;;;1.20;;
71637;SDS011;59485;43.542;-5.676;2023-05-07T13:05:56;6.93;;;1.15;;
71637;SDS011;59485;43.542;-5.676;2023-05-07T13:08:33;9.02;;;1.48;;
71637;SDS011;59485;43.542;-5.676;2023-05-07T13:11:01;8.65;;;1.10;;
71637;SDS011;59485;43.542;-5.676;2023-05-07T13:13:32;11.10;;;0.60;;
71637;SDS011;59485;43.542;-5.676;2023-05-07T13:15:58;6.10;;;0.60;;
71637;SDS011;59485;43.542;-5.676;2023-05-07T13:18:25;10.75;;;1.25;;
71637;SDS011;59485;43.542;-5.676;2023-05-07T13:20:52;9.75;;;1.08;;
71637;SDS011;59485;43.542;-5.676;2023-05-07T13:23:18;12.82;;;1.38;;
71637;SDS011;59485;43.542;-5.676;2023-05-07T13:25:44;8.80;;;1.20;;
71637;SDS011;59485;43.542;-5.676;2023-05-07T13:28:09;6.43;;;0.90;;
71637;SDS011;59485;43.542;-5.676;2023-05-07T13:30:35;12.45;;;1.10;;
71637;SDS011;59485;43.542;-5.676;2023-05-07T13:33:00;6.37;;;1.10;;
71637;SDS011;59485;43.542;-5.676;2023-05-07T13:35:26;8.88;;;2.00;;
71637;SDS011;59485;43.542;-5.676;2023-05-07T13:37:51;10.50;;;2.33;;
71637;SDS011;59485;43.542;-5.676;2023-05-07T13:40:17;10.93;;;2.97;;
71637;SDS011;59485;43.542;-5.676;2023-05-07T13:42:44;7.50;;;1.67;;
71637;SDS011;59485;43.542;-5.676;2023-05-07T13:45:10;8.00;;;2.05;;
71637;SDS011;59485;43.542;-5.676;2023-05-07T13:47:35;10.07;;;2.53;;
71637;SDS011;59485;43.542;-5.676;2023-05-07T13:50:01;7.47;;;1.47;;
71637;SDS011;59485;43.542;-5.676;2023-05-07T13:52:26;7.32;;;1.27;;
71637;SDS011;59485;43.542;-5.676;2023-05-07T13:54:52;11.77;;;1.00;;
71637;SDS011;59485;43.542;-5.676;2023-05-07T13:57:18;9.77;;;1.17;;
71637;SDS011;59485;43.542;-5.676;2023-05-07T13:59:43;5.53;;;0.80;;
71637;SDS011;59485;43.542;-5.676;2023-05-07T14:02:09;6.78;;;1.40;;
71637;SDS011;59485;43.542;-5.676;2023-05-07T14:04:35;5.67;;;0.63;;
71637;SDS011;59485;43.542;-5.676;2023-05-07T14:07:00;11.05;;;1.42;;
71637;SDS011;59485;43.542;-5.676;2023-05-07T14:09:26;8.80;;;1.37;;
71637;SDS011;59485;43.542;-5.676;2023-05-07T14:11:51;8.83;;;0.93;;
71637;SDS011;59485;43.542;-5.676;2023-05-07T14:14:17;6.50;;;0.80;;
71637;SDS011;59485;43.542;-5.676;2023-05-07T14:16:44;7.57;;;0.93;;
71637;SDS011;59485;43.542;-5.676;2023-05-07T14:19:10;7.20;;;0.83;;
71637;SDS011;59485;43.542;-5.676;2023-05-07T14:21:37;7.45;;;0.88;;
71637;SDS011;59485;43.542;-5.676;2023-05-07T14:24:02;9.73;;;0.80;;
71637;SDS011;59485;43.542;-5.676;2023-05-07T14:26:28;7.53;;;0.87;;
71637;SDS011;59485;43.542;-5.676;2023-05-07T14:28:54;11.77;;;1.40;;
71637;SDS011;59485;43.542;-5.676;2023-05-07T14:31:22;5.88;;;1.13;;
71637;SDS011;59485;43.542;-5.676;2023-05-07T14:33:48;10.03;;;1.10;;
71637;SDS011;59485;43.542;-5.676;2023-05-07T14:36:15;5.88;;;1.10;;
71637;SDS011;59485;43.542;-5.676;2023-05-07T14:38:40;7.38;;;1.42;;
71637;SDS011;59485;43.542;-5.676;2023-05-07T14:41:06;8.77;;;1.03;;